26FL weather

HCA Raulerson Hospital Heliport
Okeechobee, Florida, United States

Public forecast

Using degrees Fahrenheit for public forecast. Weather courtesy of forecast.io.

Closest aviation weather report (METAR) to HCA Raulerson Hospital Heliport

Closest report is Okeechobee County Airport, 1.1 nm (2.1 km) WNW. Retrieved 2019/10/21 17:35 UTC (0 seconds ago):

KOBE 211735Z AUTO 17006KT 10SM CLR 31/23 A3000 RMK AO2 LTG DSNT NW

Closest aviation forecast (TAF) to HCA Raulerson Hospital Heliport

Closest forecast is St Lucie County International Airport, 28.4 nm (52.5 km) ENE. Retrieved 2019/10/21 12:45 UTC (5 hours ago):

TAF KFPR 211142Z 2112/2212 VRB02KT P6SM SKC FM211400 22005KT P6SM FEW040 SCT080 FM211800 15008KT P6SM SCT040 BKN080 FM220100 20005KT P6SM FEW035